Aviation Digital Data Service (ADDS)

Output produced by METARs form (2016 UTC 01 September 2015)
found at http://aviationweather.gov/adds/metars/
 
KPBG 011738Z 0118/0218 13007KT P6SM FEW150 
     FM012300 VRB03KT P6SM FEW200